sensor_id;sensor_type;location;lat;lon;timestamp;P1;durP1;ratioP1;P2;durP2;ratioP2
61638;SDS011;47544;52.484;4.658;2023-04-16T00:00:13;6.38;;;1.77;;
61638;SDS011;47544;52.484;4.658;2023-04-16T00:00:24;7.28;;;2.08;;
61638;SDS011;47544;52.484;4.658;2023-04-16T00:00:35;7.53;;;2.40;;
61638;SDS011;47544;52.484;4.658;2023-04-16T00:00:46;8.05;;;2.45;;
61638;SDS011;47544;52.484;4.658;2023-04-16T00:00:58;9.77;;;2.80;;
61638;SDS011;47544;52.484;4.658;2023-04-16T00:01:09;10.65;;;2.53;;
61638;SDS011;47544;52.484;4.658;2023-04-16T00:01:21;10.00;;;2.38;;
61638;SDS011;47544;52.484;4.658;2023-04-16T00:01:32;9.30;;;2.10;;
61638;SDS011;47544;52.484;4.658;2023-04-16T00:01:43;8.67;;;1.90;;
61638;SDS011;47544;52.484;4.658;2023-04-16T00:01:54;7.15;;;1.67;;
61638;SDS011;47544;52.484;4.658;2023-04-16T00:02:05;8.30;;;1.88;;
61638;SDS011;47544;52.484;4.658;2023-04-16T00:02:16;8.97;;;2.23;;
61638;SDS011;47544;52.484;4.658;2023-04-16T00:02:27;8.25;;;2.15;;
61638;SDS011;47544;52.484;4.658;2023-04-16T00:02:39;8.65;;;2.13;;
61638;SDS011;47544;52.484;4.658;2023-04-16T00:02:50;8.77;;;1.90;;
61638;SDS011;47544;52.484;4.658;2023-04-16T00:03:01;10.15;;;2.20;;
61638;SDS011;47544;52.484;4.658;2023-04-16T00:03:12;8.40;;;2.20;;
61638;SDS011;47544;52.484;4.658;2023-04-16T00:03:23;7.30;;;2.00;;
61638;SDS011;47544;52.484;4.658;2023-04-16T00:03:33;7.60;;;1.80;;
61638;SDS011;47544;52.484;4.658;2023-04-16T00:03:44;8.93;;;1.88;;
61638;SDS011;47544;52.484;4.658;2023-04-16T00:03:56;10.68;;;2.10;;
61638;SDS011;47544;52.484;4.658;2023-04-16T00:04:08;9.02;;;1.92;;
61638;SDS011;47544;52.484;4.658;2023-04-16T00:04:19;6.80;;;1.40;;
61638;SDS011;47544;52.484;4.658;2023-04-16T00:04:30;5.22;;;1.48;;
61638;SDS011;47544;52.484;4.658;2023-04-16T00:04:41;6.05;;;1.48;;
61638;SDS011;47544;52.484;4.658;2023-04-16T00:04:52;7.88;;;1.80;;
61638;SDS011;47544;52.484;4.658;2023-04-16T00:05:03;8.20;;;1.97;;
61638;SDS011;47544;52.484;4.658;2023-04-16T00:05:14;9.07;;;2.30;;
61638;SDS011;47544;52.484;4.658;2023-04-16T00:05:25;8.25;;;2.13;;
61638;SDS011;47544;52.484;4.658;2023-04-16T00:05:37;8.13;;;2.05;;
61638;SDS011;47544;52.484;4.658;2023-04-16T00:05:48;7.35;;;1.83;;
61638;SDS011;47544;52.484;4.658;2023-04-16T00:05:59;9.05;;;2.15;;
61638;SDS011;47544;52.484;4.658;2023-04-16T00:06:10;9.93;;;2.20;;
61638;SDS011;47544;52.484;4.658;2023-04-16T00:06:22;10.57;;;2.35;;
61638;SDS011;47544;52.484;4.658;2023-04-16T00:06:33;10.38;;;2.55;;
61638;SDS011;47544;52.484;4.658;2023-04-16T00:06:43;9.80;;;2.45;;
61638;SDS011;47544;52.484;4.658;2023-04-16T00:06:54;6.85;;;2.00;;
61638;SDS011;47544;52.484;4.658;2023-04-16T00:07:06;6.45;;;1.73;;
61638;SDS011;47544;52.484;4.658;2023-04-16T00:07:17;7.10;;;1.60;;
61638;SDS011;47544;52.484;4.658;2023-04-16T00:07:28;9.70;;;1.88;;
61638;SDS011;47544;52.484;4.658;2023-04-16T00:07:39;9.85;;;1.85;;
61638;SDS011;47544;52.484;4.658;2023-04-16T00:07:50;11.82;;;2.10;;
61638;SDS011;47544;52.484;4.658;2023-04-16T00:08:02;8.75;;;1.55;;
61638;SDS011;47544;52.484;4.658;2023-04-16T00:08:13;7.27;;;1.60;;
61638;SDS011;47544;52.484;4.658;2023-04-16T00:08:24;6.93;;;1.65;;
61638;SDS011;47544;52.484;4.658;2023-04-16T00:08:35;9.13;;;2.10;;
61638;SDS011;47544;52.484;4.658;2023-04-16T00:08:46;9.73;;;2.50;;
61638;SDS011;47544;52.484;4.658;2023-04-16T00:08:57;9.27;;;2.58;;
61638;SDS011;47544;52.484;4.658;2023-04-16T00:09:08;8.20;;;2.55;;
61638;SDS011;47544;52.484;4.658;2023-04-16T00:09:20;9.13;;;2.38;;
61638;SDS011;47544;52.484;4.658;2023-04-16T00:09:31;9.10;;;2.33;;
61638;SDS011;47544;52.484;4.658;2023-04-16T00:09:41;10.15;;;2.38;;
61638;SDS011;47544;52.484;4.658;2023-04-16T00:09:52;7.82;;;2.25;;
61638;SDS011;47544;52.484;4.658;2023-04-16T00:10:04;8.00;;;2.20;;
61638;SDS011;47544;52.484;4.658;2023-04-16T00:10:15;6.75;;;1.73;;
61638;SDS011;47544;52.484;4.658;2023-04-16T00:10:27;6.30;;;1.42;;
61638;SDS011;47544;52.484;4.658;2023-04-16T00:10:37;8.93;;;1.63;;
61638;SDS011;47544;52.484;4.658;2023-04-16T00:10:48;9.13;;;1.85;;
61638;SDS011;47544;52.484;4.658;2023-04-16T00:11:00;7.68;;;2.10;;
61638;SDS011;47544;52.484;4.658;2023-04-16T00:11:11;6.88;;;2.30;;
61638;SDS011;47544;52.484;4.658;2023-04-16T00:11:22;7.03;;;2.50;;
61638;SDS011;47544;52.484;4.658;2023-04-16T00:11:33;7.07;;;2.40;;
61638;SDS011;47544;52.484;4.658;2023-04-16T00:11:43;6.00;;;2.20;;
61638;SDS011;47544;52.484;4.658;2023-04-16T00:11:54;7.07;;;2.58;;
61638;SDS011;47544;52.484;4.658;2023-04-16T00:12:06;7.82;;;2.70;;
61638;SDS011;47544;52.484;4.658;2023-04-16T00:12:18;8.63;;;2.70;;
61638;SDS011;47544;52.484;4.658;2023-04-16T00:12:28;9.15;;;2.47;;
61638;SDS011;47544;52.484;4.658;2023-04-16T00:12:39;10.68;;;2.58;;
61638;SDS011;47544;52.484;4.658;2023-04-16T00:12:50;9.73;;;2.47;;
61638;SDS011;47544;52.484;4.658;2023-04-16T00:13:01;9.57;;;2.38;;
61638;SDS011;47544;52.484;4.658;2023-04-16T00:13:12;8.50;;;2.17;;
61638;SDS011;47544;52.484;4.658;2023-04-16T00:13:24;9.43;;;2.60;;
61638;SDS011;47544;52.484;4.658;2023-04-16T00:13:37;9.10;;;2.85;;
61638;SDS011;47544;52.484;4.658;2023-04-16T00:13:47;9.82;;;3.00;;
61638;SDS011;47544;52.484;4.658;2023-04-16T00:13:58;9.13;;;2.60;;
61638;SDS011;47544;52.484;4.658;2023-04-16T00:14:09;9.60;;;2.58;;
61638;SDS011;47544;52.484;4.658;2023-04-16T00:14:20;8.15;;;2.55;;
61638;SDS011;47544;52.484;4.658;2023-04-16T00:14:31;8.68;;;2.65;;
61638;SDS011;47544;52.484;4.658;2023-04-16T00:14:42;9.68;;;2.63;;
61638;SDS011;47544;52.484;4.658;2023-04-16T00:14:54;8.18;;;2.22;;
61638;SDS011;47544;52.484;4.658;2023-04-16T00:15:05;7.35;;;2.05;;
61638;SDS011;47544;52.484;4.658;2023-04-16T00:15:16;8.13;;;1.98;;
61638;SDS011;47544;52.484;4.658;2023-04-16T00:15:27;8.82;;;2.20;;
61638;SDS011;47544;52.484;4.658;2023-04-16T00:15:38;10.73;;;2.60;;
61638;SDS011;47544;52.484;4.658;2023-04-16T00:15:49;13.02;;;2.67;;
61638;SDS011;47544;52.484;4.658;2023-04-16T00:16:00;12.80;;;2.60;;
61638;SDS011;47544;52.484;4.658;2023-04-16T00:16:11;7.93;;;1.83;;
61638;SDS011;47544;52.484;4.658;2023-04-16T00:16:24;5.15;;;1.50;;
61638;SDS011;47544;52.484;4.658;2023-04-16T00:16:35;6.65;;;1.67;;
61638;SDS011;47544;52.484;4.658;2023-04-16T00:16:47;7.55;;;1.90;;
61638;SDS011;47544;52.484;4.658;2023-04-16T00:16:58;8.35;;;1.98;;
61638;SDS011;47544;52.484;4.658;2023-04-16T00:17:09;7.38;;;1.92;;
61638;SDS011;47544;52.484;4.658;2023-04-16T00:17:20;6.88;;;1.98;;
61638;SDS011;47544;52.484;4.658;2023-04-16T00:17:31;8.13;;;2.28;;
61638;SDS011;47544;52.484;4.658;2023-04-16T00:17:42;8.70;;;2.55;;
61638;SDS011;47544;52.484;4.658;2023-04-16T00:17:54;9.30;;;2.60;;
61638;SDS011;47544;52.484;4.658;2023-04-16T00:18:05;9.45;;;2.70;;
61638;SDS011;47544;52.484;4.658;2023-04-16T00:18:16;9.98;;;2.65;;
61638;SDS011;47544;52.484;4.658;2023-04-16T00:18:27;12.05;;;2.85;;
61638;SDS011;47544;52.484;4.658;2023-04-16T00:18:38;10.10;;;2.78;;
61638;SDS011;47544;52.484;4.658;2023-04-16T00:18:51;8.52;;;2.85;;
61638;SDS011;47544;52.484;4.658;2023-04-16T00:19:02;8.48;;;2.92;;
61638;SDS011;47544;52.484;4.658;2023-04-16T00:19:13;11.82;;;3.08;;
61638;SDS011;47544;52.484;4.658;2023-04-16T00:19:24;10.82;;;2.78;;
61638;SDS011;47544;52.484;4.658;2023-04-16T00:19:35;8.27;;;2.17;;
61638;SDS011;47544;52.484;4.658;2023-04-16T00:19:46;7.97;;;2.13;;
61638;SDS011;47544;52.484;4.658;2023-04-16T00:19:57;9.30;;;2.35;;
61638;SDS011;47544;52.484;4.658;2023-04-16T00:20:09;10.02;;;2.88;;
61638;SDS011;47544;52.484;4.658;2023-04-16T00:20:20;9.57;;;2.83;;
61638;SDS011;47544;52.484;4.658;2023-04-16T00:20:31;8.98;;;2.78;;
61638;SDS011;47544;52.484;4.658;2023-04-16T00:20:42;9.65;;;2.88;;
61638;SDS011;47544;52.484;4.658;2023-04-16T00:20:53;10.20;;;2.83;;
61638;SDS011;47544;52.484;4.658;2023-04-16T00:21:04;11.15;;;2.90;;
61638;SDS011;47544;52.484;4.658;2023-04-16T00:21:16;11.45;;;2.92;;
61638;SDS011;47544;52.484;4.658;2023-04-16T00:21:27;12.68;;;3.15;;
61638;SDS011;47544;52.484;4.658;2023-04-16T00:21:37;13.38;;;2.90;;
61638;SDS011;47544;52.484;4.658;2023-04-16T00:21:48;10.57;;;2.43;;
61638;SDS011;47544;52.484;4.658;2023-04-16T00:21:59;8.02;;;2.17;;
61638;SDS011;47544;52.484;4.658;2023-04-16T00:22:10;7.80;;;2.40;;
61638;SDS011;47544;52.484;4.658;2023-04-16T00:22:21;10.77;;;2.72;;
61638;SDS011;47544;52.484;4.658;2023-04-16T00:22:33;11.05;;;2.92;;
61638;SDS011;47544;52.484;4.658;2023-04-16T00:22:46;10.70;;;3.00;;
61638;SDS011;47544;52.484;4.658;2023-04-16T00:22:57;10.13;;;2.95;;
61638;SDS011;47544;52.484;4.658;2023-04-16T00:23:08;8.83;;;2.70;;
61638;SDS011;47544;52.484;4.658;2023-04-16T00:23:19;8.45;;;2.75;;
61638;SDS011;47544;52.484;4.658;2023-04-16T00:23:30;9.18;;;2.83;;
61638;SDS011;47544;52.484;4.658;2023-04-16T00:23:41;11.05;;;2.90;;
61638;SDS011;47544;52.484;4.658;2023-04-16T00:23:52;9.45;;;2.28;;
61638;SDS011;47544;52.484;4.658;2023-04-16T00:24:03;9.18;;;2.13;;
61638;SDS011;47544;52.484;4.658;2023-04-16T00:24:15;8.13;;;2.35;;
61638;SDS011;47544;52.484;4.658;2023-04-16T00:24:26;9.13;;;2.78;;
61638;SDS011;47544;52.484;4.658;2023-04-16T00:24:37;9.48;;;2.97;;
61638;SDS011;47544;52.484;4.658;2023-04-16T00:24:48;10.35;;;2.92;;
61638;SDS011;47544;52.484;4.658;2023-04-16T00:24:58;10.05;;;2.95;;
61638;SDS011;47544;52.484;4.658;2023-04-16T00:25:09;9.53;;;2.83;;
61638;SDS011;47544;52.484;4.658;2023-04-16T00:25:20;10.18;;;2.85;;
61638;SDS011;47544;52.484;4.658;2023-04-16T00:25:31;8.95;;;2.45;;
61638;SDS011;47544;52.484;4.658;2023-04-16T00:25:42;8.35;;;2.47;;
61638;SDS011;47544;52.484;4.658;2023-04-16T00:25:54;9.88;;;2.42;;
61638;SDS011;47544;52.484;4.658;2023-04-16T00:26:07;10.35;;;2.20;;
61638;SDS011;47544;52.484;4.658;2023-04-16T00:26:18;10.95;;;2.38;;
61638;SDS011;47544;52.484;4.658;2023-04-16T00:26:28;10.00;;;2.67;;
61638;SDS011;47544;52.484;4.658;2023-04-16T00:26:39;8.23;;;2.55;;
61638;SDS011;47544;52.484;4.658;2023-04-16T00:26:50;7.15;;;2.10;;
61638;SDS011;47544;52.484;4.658;2023-04-16T00:27:01;6.57;;;1.93;;
61638;SDS011;47544;52.484;4.658;2023-04-16T00:27:12;7.30;;;2.17;;
61638;SDS011;47544;52.484;4.658;2023-04-16T00:27:24;9.10;;;2.83;;
61638;SDS011;47544;52.484;4.658;2023-04-16T00:27:35;9.35;;;3.17;;
61638;SDS011;47544;52.484;4.658;2023-04-16T00:27:46;9.55;;;3.10;;
61638;SDS011;47544;52.484;4.658;2023-04-16T00:27:57;10.60;;;2.95;;
61638;SDS011;47544;52.484;4.658;2023-04-16T00:28:08;10.60;;;2.90;;
61638;SDS011;47544;52.484;4.658;2023-04-16T00:28:18;9.68;;;2.90;;
61638;SDS011;47544;52.484;4.658;2023-04-16T00:28:29;8.88;;;2.70;;
61638;SDS011;47544;52.484;4.658;2023-04-16T00:28:40;9.57;;;2.67;;
61638;SDS011;47544;52.484;4.658;2023-04-16T00:28:52;9.55;;;2.78;;
61638;SDS011;47544;52.484;4.658;2023-04-16T00:29:03;8.70;;;2.72;;
61638;SDS011;47544;52.484;4.658;2023-04-16T00:29:14;8.15;;;3.03;;
61638;SDS011;47544;52.484;4.658;2023-04-16T00:29:25;9.10;;;2.97;;
61638;SDS011;47544;52.484;4.658;2023-04-16T00:29:38;11.48;;;3.42;;
61638;SDS011;47544;52.484;4.658;2023-04-16T00:29:49;12.55;;;3.63;;
61638;SDS011;47544;52.484;4.658;2023-04-16T00:30:00;12.38;;;3.65;;
61638;SDS011;47544;52.484;4.658;2023-04-16T00:30:11;11.50;;;3.60;;
61638;SDS011;47544;52.484;4.658;2023-04-16T00:30:22;12.30;;;3.45;;
61638;SDS011;47544;52.484;4.658;2023-04-16T00:30:34;12.02;;;3.13;;
61638;SDS011;47544;52.484;4.658;2023-04-16T00:30:45;9.98;;;3.20;;
61638;SDS011;47544;52.484;4.658;2023-04-16T00:30:55;8.73;;;3.25;;
61638;SDS011;47544;52.484;4.658;2023-04-16T00:31:06;7.55;;;3.03;;
61638;SDS011;47544;52.484;4.658;2023-04-16T00:31:17;6.68;;;2.83;;
61638;SDS011;47544;52.484;4.658;2023-04-16T00:31:37;8.20;;;3.03;;
61638;SDS011;47544;52.484;4.658;2023-04-16T00:31:49;8.70;;;2.47;;
61638;SDS011;47544;52.484;4.658;2023-04-16T00:31:59;8.63;;;2.00;;
61638;SDS011;47544;52.484;4.658;2023-04-16T00:32:10;7.65;;;1.95;;
61638;SDS011;47544;52.484;4.658;2023-04-16T00:32:21;6.05;;;1.83;;
61638;SDS011;47544;52.484;4.658;2023-04-16T00:32:32;6.57;;;1.70;;
61638;SDS011;47544;52.484;4.658;2023-04-16T00:32:43;7.57;;;1.73;;
61638;SDS011;47544;52.484;4.658;2023-04-16T00:32:54;7.97;;;2.15;;
61638;SDS011;47544;52.484;4.658;2023-04-16T00:33:05;6.55;;;2.45;;
61638;SDS011;47544;52.484;4.658;2023-04-16T00:33:16;7.15;;;3.00;;
61638;SDS011;47544;52.484;4.658;2023-04-16T00:33:27;9.32;;;3.17;;
61638;SDS011;47544;52.484;4.658;2023-04-16T00:33:39;10.07;;;3.33;;
61638;SDS011;47544;52.484;4.658;2023-04-16T00:33:50;9.65;;;3.17;;
61638;SDS011;47544;52.484;4.658;2023-04-16T00:34:01;9.63;;;3.03;;
61638;SDS011;47544;52.484;4.658;2023-04-16T00:34:13;9.07;;;2.90;;
61638;SDS011;47544;52.484;4.658;2023-04-16T00:34:24;10.30;;;3.08;;
61638;SDS011;47544;52.484;4.658;2023-04-16T00:34:35;10.75;;;2.92;;
61638;SDS011;47544;52.484;4.658;2023-04-16T00:34:46;12.43;;;3.28;;
61638;SDS011;47544;52.484;4.658;2023-04-16T00:34:57;10.37;;;3.10;;
61638;SDS011;47544;52.484;4.658;2023-04-16T00:35:08;9.15;;;2.92;;
61638;SDS011;47544;52.484;4.658;2023-04-16T00:35:20;8.25;;;2.90;;
61638;SDS011;47544;52.484;4.658;2023-04-16T00:35:31;9.52;;;3.10;;
61638;SDS011;47544;52.484;4.658;2023-04-16T00:35:43;8.43;;;2.80;;
61638;SDS011;47544;52.484;4.658;2023-04-16T00:35:54;6.55;;;2.20;;
61638;SDS011;47544;52.484;4.658;2023-04-16T00:36:05;6.22;;;2.67;;
61638;SDS011;47544;52.484;4.658;2023-04-16T00:36:17;8.20;;;3.03;;
61638;SDS011;47544;52.484;4.658;2023-04-16T00:36:27;10.18;;;3.40;;
61638;SDS011;47544;52.484;4.658;2023-04-16T00:36:38;13.25;;;3.70;;
61638;SDS011;47544;52.484;4.658;2023-04-16T00:36:50;13.38;;;3.97;;
61638;SDS011;47544;52.484;4.658;2023-04-16T00:37:01;11.32;;;3.78;;
61638;SDS011;47544;52.484;4.658;2023-04-16T00:37:12;11.25;;;3.80;;
61638;SDS011;47544;52.484;4.658;2023-04-16T00:37:23;11.38;;;3.63;;
61638;SDS011;47544;52.484;4.658;2023-04-16T00:37:34;13.65;;;3.92;;
61638;SDS011;47544;52.484;4.658;2023-04-16T00:37:45;13.10;;;4.03;;
61638;SDS011;47544;52.484;4.658;2023-04-16T00:37:56;14.40;;;4.30;;
61638;SDS011;47544;52.484;4.658;2023-04-16T00:38:07;11.73;;;4.07;;
61638;SDS011;47544;52.484;4.658;2023-04-16T00:38:19;11.15;;;3.80;;
61638;SDS011;47544;52.484;4.658;2023-04-16T00:38:30;10.50;;;3.80;;
61638;SDS011;47544;52.484;4.658;2023-04-16T00:38:42;10.82;;;3.78;;
61638;SDS011;47544;52.484;4.658;2023-04-16T00:38:53;8.85;;;2.90;;
61638;SDS011;47544;52.484;4.658;2023-04-16T00:39:04;7.70;;;2.67;;
61638;SDS011;47544;52.484;4.658;2023-04-16T00:39:15;5.68;;;2.25;;
61638;SDS011;47544;52.484;4.658;2023-04-16T00:39:26;6.30;;;2.25;;
61638;SDS011;47544;52.484;4.658;2023-04-16T00:39:37;5.40;;;1.80;;
61638;SDS011;47544;52.484;4.658;2023-04-16T00:39:49;5.70;;;1.83;;
61638;SDS011;47544;52.484;4.658;2023-04-16T00:39:59;5.07;;;2.03;;
61638;SDS011;47544;52.484;4.658;2023-04-16T00:40:10;6.53;;;2.78;;
61638;SDS011;47544;52.484;4.658;2023-04-16T00:40:21;6.70;;;2.85;;
61638;SDS011;47544;52.484;4.658;2023-04-16T00:40:32;6.93;;;2.65;;
61638;SDS011;47544;52.484;4.658;2023-04-16T00:40:43;8.88;;;2.47;;
61638;SDS011;47544;52.484;4.658;2023-04-16T00:40:54;9.25;;;2.70;;
61638;SDS011;47544;52.484;4.658;2023-04-16T00:41:09;9.52;;;2.97;;
61638;SDS011;47544;52.484;4.658;2023-04-16T00:41:20;7.80;;;2.72;;
61638;SDS011;47544;52.484;4.658;2023-04-16T00:41:32;8.63;;;2.97;;
61638;SDS011;47544;52.484;4.658;2023-04-16T00:41:43;11.52;;;3.90;;
61638;SDS011;47544;52.484;4.658;2023-04-16T00:41:54;11.70;;;4.10;;
61638;SDS011;47544;52.484;4.658;2023-04-16T00:42:05;13.60;;;3.90;;
61638;SDS011;47544;52.484;4.658;2023-04-16T00:42:16;12.50;;;3.75;;
61638;SDS011;47544;52.484;4.658;2023-04-16T00:42:27;11.95;;;3.80;;
61638;SDS011;47544;52.484;4.658;2023-04-16T00:42:38;11.65;;;3.97;;
61638;SDS011;47544;52.484;4.658;2023-04-16T00:42:49;13.98;;;4.32;;
61638;SDS011;47544;52.484;4.658;2023-04-16T00:43:02;12.93;;;4.10;;
61638;SDS011;47544;52.484;4.658;2023-04-16T00:43:19;12.65;;;3.90;;
61638;SDS011;47544;52.484;4.658;2023-04-16T00:43:30;9.18;;;3.33;;
61638;SDS011;47544;52.484;4.658;2023-04-16T00:43:41;10.05;;;3.15;;
61638;SDS011;47544;52.484;4.658;2023-04-16T00:43:52;10.60;;;2.95;;
61638;SDS011;47544;52.484;4.658;2023-04-16T00:44:03;10.37;;;3.13;;
61638;SDS011;47544;52.484;4.658;2023-04-16T00:44:14;8.43;;;3.35;;
61638;SDS011;47544;52.484;4.658;2023-04-16T00:44:25;9.13;;;3.55;;
61638;SDS011;47544;52.484;4.658;2023-04-16T00:44:36;10.23;;;3.80;;
61638;SDS011;47544;52.484;4.658;2023-04-16T00:44:47;10.93;;;3.95;;
61638;SDS011;47544;52.484;4.658;2023-04-16T00:44:58;12.15;;;4.20;;
61638;SDS011;47544;52.484;4.658;2023-04-16T00:45:10;13.80;;;4.35;;
61638;SDS011;47544;52.484;4.658;2023-04-16T00:45:21;13.27;;;4.30;;
61638;SDS011;47544;52.484;4.658;2023-04-16T00:45:32;12.25;;;4.50;;
61638;SDS011;47544;52.484;4.658;2023-04-16T00:45:43;11.50;;;4.35;;
61638;SDS011;47544;52.484;4.658;2023-04-16T00:45:55;11.68;;;4.30;;
61638;SDS011;47544;52.484;4.658;2023-04-16T00:46:06;11.48;;;4.13;;
61638;SDS011;47544;52.484;4.658;2023-04-16T00:46:18;12.02;;;4.07;;
61638;SDS011;47544;52.484;4.658;2023-04-16T00:46:28;12.98;;;3.88;;
61638;SDS011;47544;52.484;4.658;2023-04-16T00:46:41;14.32;;;4.15;;
61638;SDS011;47544;52.484;4.658;2023-04-16T00:46:52;12.15;;;4.18;;
61638;SDS011;47544;52.484;4.658;2023-04-16T00:47:03;10.65;;;3.90;;
61638;SDS011;47544;52.484;4.658;2023-04-16T00:47:17;11.73;;;4.00;;
61638;SDS011;47544;52.484;4.658;2023-04-16T00:47:29;12.55;;;4.00;;
61638;SDS011;47544;52.484;4.658;2023-04-16T00:47:40;13.02;;;4.00;;
61638;SDS011;47544;52.484;4.658;2023-04-16T00:47:51;12.18;;;4.00;;
61638;SDS011;47544;52.484;4.658;2023-04-16T00:48:02;12.98;;;4.28;;
61638;SDS011;47544;52.484;4.658;2023-04-16T00:48:13;12.23;;;4.35;;
61638;SDS011;47544;52.484;4.658;2023-04-16T00:48:24;12.13;;;4.65;;
61638;SDS011;47544;52.484;4.658;2023-04-16T00:48:37;12.88;;;4.38;;
61638;SDS011;47544;52.484;4.658;2023-04-16T00:48:49;14.20;;;4.35;;
61638;SDS011;47544;52.484;4.658;2023-04-16T00:49:02;14.02;;;4.53;;
61638;SDS011;47544;52.484;4.658;2023-04-16T00:49:13;13.15;;;4.45;;
61638;SDS011;47544;52.484;4.658;2023-04-16T00:49:24;14.15;;;4.50;;
61638;SDS011;47544;52.484;4.658;2023-04-16T00:49:35;12.32;;;4.25;;
61638;SDS011;47544;52.484;4.658;2023-04-16T00:49:46;11.85;;;4.40;;
61638;SDS011;47544;52.484;4.658;2023-04-16T00:49:57;13.05;;;4.40;;
61638;SDS011;47544;52.484;4.658;2023-04-16T00:50:08;15.00;;;4.65;;
61638;SDS011;47544;52.484;4.658;2023-04-16T00:50:19;14.43;;;4.60;;
61638;SDS011;47544;52.484;4.658;2023-04-16T00:50:31;12.20;;;4.70;;
61638;SDS011;47544;52.484;4.658;2023-04-16T00:50:44;13.13;;;4.70;;
61638;SDS011;47544;52.484;4.658;2023-04-16T00:50:55;12.38;;;4.18;;
61638;SDS011;47544;52.484;4.658;2023-04-16T00:51:06;11.70;;;3.88;;
61638;SDS011;47544;52.484;4.658;2023-04-16T00:51:17;9.77;;;3.40;;
61638;SDS011;47544;52.484;4.658;2023-04-16T00:51:29;11.82;;;3.85;;
61638;SDS011;47544;52.484;4.658;2023-04-16T00:51:40;11.98;;;3.55;;
61638;SDS011;47544;52.484;4.658;2023-04-16T00:51:51;12.00;;;3.80;;
61638;SDS011;47544;52.484;4.658;2023-04-16T00:52:03;11.13;;;4.07;;
61638;SDS011;47544;52.484;4.658;2023-04-16T00:52:14;11.80;;;4.45;;
61638;SDS011;47544;52.484;4.658;2023-04-16T00:52:25;11.13;;;3.90;;
61638;SDS011;47544;52.484;4.658;2023-04-16T00:52:37;10.50;;;3.47;;
61638;SDS011;47544;52.484;4.658;2023-04-16T00:52:48;10.00;;;3.40;;
61638;SDS011;47544;52.484;4.658;2023-04-16T00:53:00;12.65;;;3.47;;
61638;SDS011;47544;52.484;4.658;2023-04-16T00:53:11;12.60;;;3.58;;
61638;SDS011;47544;52.484;4.658;2023-04-16T00:53:23;10.20;;;3.20;;
61638;SDS011;47544;52.484;4.658;2023-04-16T00:53:35;8.52;;;2.92;;
61638;SDS011;47544;52.484;4.658;2023-04-16T00:53:46;9.02;;;3.00;;
61638;SDS011;47544;52.484;4.658;2023-04-16T00:53:57;10.73;;;3.38;;
61638;SDS011;47544;52.484;4.658;2023-04-16T00:54:08;10.75;;;3.50;;
61638;SDS011;47544;52.484;4.658;2023-04-16T00:54:18;11.18;;;4.00;;
61638;SDS011;47544;52.484;4.658;2023-04-16T00:54:30;9.25;;;3.92;;
61638;SDS011;47544;52.484;4.658;2023-04-16T00:54:41;8.90;;;3.90;;
61638;SDS011;47544;52.484;4.658;2023-04-16T00:54:53;11.18;;;4.10;;
61638;SDS011;47544;52.484;4.658;2023-04-16T00:55:05;14.00;;;4.72;;
61638;SDS011;47544;52.484;4.658;2023-04-16T00:55:16;14.40;;;4.60;;
61638;SDS011;47544;52.484;4.658;2023-04-16T00:55:28;15.48;;;4.55;;
61638;SDS011;47544;52.484;4.658;2023-04-16T00:55:39;14.45;;;4.30;;
61638;SDS011;47544;52.484;4.658;2023-04-16T00:55:50;15.00;;;4.30;;
61638;SDS011;47544;52.484;4.658;2023-04-16T00:56:01;14.32;;;4.55;;
61638;SDS011;47544;52.484;4.658;2023-04-16T00:56:13;15.80;;;4.75;;
61638;SDS011;47544;52.484;4.658;2023-04-16T00:56:24;15.85;;;4.70;;
61638;SDS011;47544;52.484;4.658;2023-04-16T00:56:36;16.00;;;5.03;;
61638;SDS011;47544;52.484;4.658;2023-04-16T00:56:47;18.05;;;5.15;;
61638;SDS011;47544;52.484;4.658;2023-04-16T00:56:58;16.83;;;4.97;;
61638;SDS011;47544;52.484;4.658;2023-04-16T00:57:13;14.00;;;4.00;;
61638;SDS011;47544;52.484;4.658;2023-04-16T00:57:24;11.43;;;3.40;;
61638;SDS011;47544;52.484;4.658;2023-04-16T00:57:35;9.98;;;2.78;;
61638;SDS011;47544;52.484;4.658;2023-04-16T00:57:47;8.15;;;2.78;;
61638;SDS011;47544;52.484;4.658;2023-04-16T00:57:58;8.68;;;2.72;;
61638;SDS011;47544;52.484;4.658;2023-04-16T00:58:08;12.60;;;3.72;;
61638;SDS011;47544;52.484;4.658;2023-04-16T00:58:19;13.18;;;4.07;;
61638;SDS011;47544;52.484;4.658;2023-04-16T00:58:31;12.10;;;4.05;;
61638;SDS011;47544;52.484;4.658;2023-04-16T00:58:42;11.30;;;4.10;;
61638;SDS011;47544;52.484;4.658;2023-04-16T00:58:53;14.57;;;4.65;;
61638;SDS011;47544;52.484;4.658;2023-04-16T00:59:04;13.85;;;4.82;;
61638;SDS011;47544;52.484;4.658;2023-04-16T00:59:15;13.23;;;4.70;;
61638;SDS011;47544;52.484;4.658;2023-04-16T00:59:27;10.73;;;4.43;;
61638;SDS011;47544;52.484;4.658;2023-04-16T00:59:38;11.82;;;4.53;;
61638;SDS011;47544;52.484;4.658;2023-04-16T00:59:49;10.90;;;4.35;;
61638;SDS011;47544;52.484;4.658;2023-04-16T01:00:01;12.32;;;4.60;;
61638;SDS011;47544;52.484;4.658;2023-04-16T01:00:12;11.00;;;4.28;;
61638;SDS011;47544;52.484;4.658;2023-04-16T01:00:23;9.90;;;3.60;;
61638;SDS011;47544;52.484;4.658;2023-04-16T01:00:35;9.77;;;3.60;;
61638;SDS011;47544;52.484;4.658;2023-04-16T01:00:47;11.27;;;4.15;;
61638;SDS011;47544;52.484;4.658;2023-04-16T01:00:58;9.40;;;3.63;;
61638;SDS011;47544;52.484;4.658;2023-04-16T01:01:09;9.27;;;3.70;;
61638;SDS011;47544;52.484;4.658;2023-04-16T01:01:20;10.02;;;4.05;;
61638;SDS011;47544;52.484;4.658;2023-04-16T01:01:30;12.20;;;4.32;;
61638;SDS011;47544;52.484;4.658;2023-04-16T01:01:43;12.50;;;4.20;;
61638;SDS011;47544;52.484;4.658;2023-04-16T01:01:54;10.75;;;3.67;;
61638;SDS011;47544;52.484;4.658;2023-04-16T01:02:04;9.25;;;3.55;;
61638;SDS011;47544;52.484;4.658;2023-04-16T01:02:16;7.53;;;2.80;;
61638;SDS011;47544;52.484;4.658;2023-04-16T01:02:27;7.30;;;2.50;;
61638;SDS011;47544;52.484;4.658;2023-04-16T01:02:38;5.00;;;1.88;;
61638;SDS011;47544;52.484;4.658;2023-04-16T01:02:49;6.03;;;2.42;;
61638;SDS011;47544;52.484;4.658;2023-04-16T01:03:00;7.80;;;2.80;;
61638;SDS011;47544;52.484;4.658;2023-04-16T01:03:11;9.93;;;3.17;;
61638;SDS011;47544;52.484;4.658;2023-04-16T01:03:22;10.98;;;3.63;;
61638;SDS011;47544;52.484;4.658;2023-04-16T01:03:35;11.10;;;4.03;;
61638;SDS011;47544;52.484;4.658;2023-04-16T01:03:48;10.55;;;4.03;;
61638;SDS011;47544;52.484;4.658;2023-04-16T01:03:59;11.05;;;3.70;;
61638;SDS011;47544;52.484;4.658;2023-04-16T01:04:10;11.38;;;3.67;;
61638;SDS011;47544;52.484;4.658;2023-04-16T01:04:21;9.80;;;3.55;;
61638;SDS011;47544;52.484;4.658;2023-04-16T01:04:31;11.27;;;3.97;;
61638;SDS011;47544;52.484;4.658;2023-04-16T01:04:43;12.75;;;4.43;;
61638;SDS011;47544;52.484;4.658;2023-04-16T01:04:54;13.07;;;4.13;;
61638;SDS011;47544;52.484;4.658;2023-04-16T01:05:06;11.25;;;3.50;;
61638;SDS011;47544;52.484;4.658;2023-04-16T01:05:17;12.00;;;3.38;;
61638;SDS011;47544;52.484;4.658;2023-04-16T01:05:28;10.73;;;3.35;;
61638;SDS011;47544;52.484;4.658;2023-04-16T01:05:39;9.25;;;3.40;;
61638;SDS011;47544;52.484;4.658;2023-04-16T01:05:50;7.55;;;2.75;;
61638;SDS011;47544;52.484;4.658;2023-04-16T01:06:01;10.02;;;2.80;;
61638;SDS011;47544;52.484;4.658;2023-04-16T01:06:13;12.95;;;3.67;;
61638;SDS011;47544;52.484;4.658;2023-04-16T01:06:24;13.55;;;4.40;;
61638;SDS011;47544;52.484;4.658;2023-04-16T01:06:36;12.27;;;4.35;;
61638;SDS011;47544;52.484;4.658;2023-04-16T01:06:47;12.65;;;4.18;;
61638;SDS011;47544;52.484;4.658;2023-04-16T01:06:58;17.23;;;5.05;;
61638;SDS011;47544;52.484;4.658;2023-04-16T01:07:09;16.13;;;4.72;;
61638;SDS011;47544;52.484;4.658;2023-04-16T01:07:20;9.63;;;3.53;;
61638;SDS011;47544;52.484;4.658;2023-04-16T01:07:31;11.43;;;3.88;;